sensor_id;sensor_type;location;lat;lon;timestamp;pressure;altitude;pressure_sealevel;temperature;humidity
55066;BME280;40964;42.114;24.220;2023-03-19T00:01:58;98398.88;;;2.44;67.69
55066;BME280;40964;42.114;24.220;2023-03-19T00:04:25;98398.22;;;2.24;67.75
55066;BME280;40964;42.114;24.220;2023-03-19T00:06:51;98404.69;;;2.20;68.41
55066;BME280;40964;42.114;24.220;2023-03-19T00:09:17;98405.88;;;2.25;67.91
55066;BME280;40964;42.114;24.220;2023-03-19T00:11:43;98407.19;;;2.30;67.90
55066;BME280;40964;42.114;24.220;2023-03-19T00:14:08;98393.84;;;2.24;67.58
55066;BME280;40964;42.114;24.220;2023-03-19T00:16:35;98337.88;;;1.86;67.93
55066;BME280;40964;42.114;24.220;2023-03-19T00:19:00;98352.13;;;2.00;68.19
55066;BME280;40964;42.114;24.220;2023-03-19T00:21:26;98382.28;;;2.19;67.99
55066;BME280;40964;42.114;24.220;2023-03-19T00:23:52;98382.59;;;2.16;68.56
55066;BME280;40964;42.114;24.220;2023-03-19T00:26:18;98379.31;;;2.14;69.48
55066;BME280;40964;42.114;24.220;2023-03-19T00:28:43;98374.84;;;2.06;69.87
55066;BME280;40964;42.114;24.220;2023-03-19T00:31:14;98364.22;;;2.09;70.13
55066;BME280;40964;42.114;24.220;2023-03-19T00:33:40;98370.28;;;2.18;69.05
55066;BME280;40964;42.114;24.220;2023-03-19T00:36:06;98364.13;;;2.19;69.51
55066;BME280;40964;42.114;24.220;2023-03-19T00:38:32;98363.81;;;2.22;69.00
55066;BME280;40964;42.114;24.220;2023-03-19T00:41:00;98350.59;;;2.33;68.39
55066;BME280;40964;42.114;24.220;2023-03-19T00:43:25;98352.44;;;2.41;67.95
55066;BME280;40964;42.114;24.220;2023-03-19T00:45:51;98345.91;;;2.54;66.89
55066;BME280;40964;42.114;24.220;2023-03-19T00:48:17;98348.09;;;2.67;66.26
55066;BME280;40964;42.114;24.220;2023-03-19T00:50:42;98348.75;;;2.69;66.15
55066;BME280;40964;42.114;24.220;2023-03-19T00:53:08;98334.66;;;2.72;66.11
55066;BME280;40964;42.114;24.220;2023-03-19T00:55:34;98337.31;;;2.80;66.30
55066;BME280;40964;42.114;24.220;2023-03-19T00:58:00;98329.97;;;2.75;66.09
55066;BME280;40964;42.114;24.220;2023-03-19T01:00:26;98329.91;;;2.67;66.11
55066;BME280;40964;42.114;24.220;2023-03-19T01:02:51;98337.88;;;2.66;65.95
55066;BME280;40964;42.114;24.220;2023-03-19T01:05:17;98341.22;;;2.58;66.11
55066;BME280;40964;42.114;24.220;2023-03-19T01:07:42;98336.50;;;2.53;65.65
55066;BME280;40964;42.114;24.220;2023-03-19T01:10:09;98341.00;;;2.51;65.98
55066;BME280;40964;42.114;24.220;2023-03-19T01:12:35;98335.22;;;2.58;66.02
55066;BME280;40964;42.114;24.220;2023-03-19T01:15:01;98332.28;;;2.52;65.50
55066;BME280;40964;42.114;24.220;2023-03-19T01:17:26;98328.06;;;2.60;64.86
55066;BME280;40964;42.114;24.220;2023-03-19T01:19:52;98334.09;;;2.60;64.80
55066;BME280;40964;42.114;24.220;2023-03-19T01:22:18;98330.38;;;2.63;65.94
55066;BME280;40964;42.114;24.220;2023-03-19T01:24:43;98323.34;;;2.55;65.97
55066;BME280;40964;42.114;24.220;2023-03-19T01:27:09;98329.19;;;2.57;66.50
55066;BME280;40964;42.114;24.220;2023-03-19T01:29:35;98324.97;;;2.56;65.76
55066;BME280;40964;42.114;24.220;2023-03-19T01:32:01;98324.97;;;2.56;66.24
55066;BME280;40964;42.114;24.220;2023-03-19T01:34:26;98318.91;;;2.47;66.25
55066;BME280;40964;42.114;24.220;2023-03-19T01:36:52;98322.94;;;2.42;66.53
55066;BME280;40964;42.114;24.220;2023-03-19T01:39:17;98335.72;;;2.35;68.14
55066;BME280;40964;42.114;24.220;2023-03-19T01:41:43;98329.41;;;2.38;68.11
55066;BME280;40964;42.114;24.220;2023-03-19T01:44:32;98328.91;;;2.34;67.47
55066;BME280;40964;42.114;24.220;2023-03-19T01:47:00;98337.63;;;2.33;67.78
55066;BME280;40964;42.114;24.220;2023-03-19T01:49:28;98331.94;;;2.30;67.98
55066;BME280;40964;42.114;24.220;2023-03-19T01:51:55;98332.41;;;2.25;68.52
55066;BME280;40964;42.114;24.220;2023-03-19T01:54:23;98327.72;;;2.28;68.64
55066;BME280;40964;42.114;24.220;2023-03-19T01:56:52;98337.44;;;2.26;68.41
55066;BME280;40964;42.114;24.220;2023-03-19T02:01:58;98327.66;;;2.20;68.42
55066;BME280;40964;42.114;24.220;2023-03-19T02:04:26;98330.41;;;2.19;68.85
55066;BME280;40964;42.114;24.220;2023-03-19T02:06:55;98326.16;;;2.18;68.37
55066;BME280;40964;42.114;24.220;2023-03-19T02:09:21;98337.53;;;2.17;68.24
55066;BME280;40964;42.114;24.220;2023-03-19T02:11:48;98332.19;;;2.18;68.59
55066;BME280;40964;42.114;24.220;2023-03-19T02:14:15;98331.88;;;2.21;67.42
55066;BME280;40964;42.114;24.220;2023-03-19T02:16:40;98342.25;;;2.21;67.62
55066;BME280;40964;42.114;24.220;2023-03-19T02:19:07;98337.59;;;2.25;68.35
55066;BME280;40964;42.114;24.220;2023-03-19T02:21:35;98337.44;;;2.26;67.62
55066;BME280;40964;42.114;24.220;2023-03-19T02:24:25;98340.53;;;2.30;67.36
55066;BME280;40964;42.114;24.220;2023-03-19T02:26:49;98339.94;;;2.36;67.87
55066;BME280;40964;42.114;24.220;2023-03-19T02:29:15;98347.94;;;2.43;67.16
55066;BME280;40964;42.114;24.220;2023-03-19T02:31:41;98331.41;;;2.44;67.34
55066;BME280;40964;42.114;24.220;2023-03-19T02:36:41;98337.66;;;2.59;66.57
55066;BME280;40964;42.114;24.220;2023-03-19T02:39:21;98330.22;;;2.64;66.12
55066;BME280;40964;42.114;24.220;2023-03-19T02:41:47;98340.00;;;2.70;66.16
55066;BME280;40964;42.114;24.220;2023-03-19T02:44:16;98334.81;;;2.70;66.29
55066;BME280;40964;42.114;24.220;2023-03-19T02:46:44;98334.84;;;2.78;65.95
55066;BME280;40964;42.114;24.220;2023-03-19T02:49:10;98339.69;;;2.73;66.16
55066;BME280;40964;42.114;24.220;2023-03-19T02:51:36;98333.81;;;2.63;67.07
55066;BME280;40964;42.114;24.220;2023-03-19T02:54:02;98334.72;;;2.54;67.13
55066;BME280;40964;42.114;24.220;2023-03-19T02:56:28;98334.41;;;2.57;67.17
55066;BME280;40964;42.114;24.220;2023-03-19T02:58:53;98337.66;;;2.59;67.22
55066;BME280;40964;42.114;24.220;2023-03-19T03:01:18;98342.41;;;2.64;67.21
55066;BME280;40964;42.114;24.220;2023-03-19T03:03:45;98344.47;;;2.34;68.31
55066;BME280;40964;42.114;24.220;2023-03-19T03:06:10;98353.91;;;2.17;68.57
55066;BME280;40964;42.114;24.220;2023-03-19T03:08:36;98348.56;;;2.01;69.45
55066;BME280;40964;42.114;24.220;2023-03-19T03:11:02;98352.78;;;2.02;68.96
55066;BME280;40964;42.114;24.220;2023-03-19T03:13:28;98358.72;;;1.94;69.62
55066;BME280;40964;42.114;24.220;2023-03-19T03:15:53;98352.28;;;1.98;68.96
55066;BME280;40964;42.114;24.220;2023-03-19T03:18:19;98351.75;;;1.95;69.66
55066;BME280;40964;42.114;24.220;2023-03-19T03:20:44;98358.94;;;2.01;69.80
55066;BME280;40964;42.114;24.220;2023-03-19T03:23:10;98365.44;;;2.05;69.79
55066;BME280;40964;42.114;24.220;2023-03-19T03:25:35;98361.75;;;2.08;69.41
55066;BME280;40964;42.114;24.220;2023-03-19T03:28:01;98368.72;;;2.07;70.32
55066;BME280;40964;42.114;24.220;2023-03-19T03:30:27;98361.31;;;2.12;69.63
55066;BME280;40964;42.114;24.220;2023-03-19T03:32:53;98362.19;;;2.21;69.31
55066;BME280;40964;42.114;24.220;2023-03-19T03:35:18;98370.44;;;2.34;69.06
55066;BME280;40964;42.114;24.220;2023-03-19T03:37:50;98363.13;;;2.38;68.25
55066;BME280;40964;42.114;24.220;2023-03-19T03:40:15;98367.84;;;2.34;69.11
55066;BME280;40964;42.114;24.220;2023-03-19T03:42:42;98370.13;;;2.37;68.96
55066;BME280;40964;42.114;24.220;2023-03-19T03:45:08;98364.38;;;2.34;69.22
55066;BME280;40964;42.114;24.220;2023-03-19T03:47:35;98368.25;;;2.30;69.05
55066;BME280;40964;42.114;24.220;2023-03-19T03:50:02;98365.00;;;2.27;69.28
55066;BME280;40964;42.114;24.220;2023-03-19T03:52:30;98371.66;;;2.30;69.01
55066;BME280;40964;42.114;24.220;2023-03-19T03:54:59;98374.72;;;2.25;69.39
55066;BME280;40964;42.114;24.220;2023-03-19T03:57:25;98372.88;;;2.18;69.41
55066;BME280;40964;42.114;24.220;2023-03-19T03:59:52;98380.81;;;2.16;70.00
55066;BME280;40964;42.114;24.220;2023-03-19T04:02:18;98370.06;;;2.11;70.35
55066;BME280;40964;42.114;24.220;2023-03-19T04:04:44;98370.63;;;2.05;70.63
55066;BME280;40964;42.114;24.220;2023-03-19T04:07:09;98372.00;;;2.09;69.71
55066;BME280;40964;42.114;24.220;2023-03-19T04:09:35;98375.56;;;2.08;70.20
55066;BME280;40964;42.114;24.220;2023-03-19T04:12:01;98376.78;;;2.04;70.05
55066;BME280;40964;42.114;24.220;2023-03-19T04:14:26;98379.38;;;2.04;70.54
55066;BME280;40964;42.114;24.220;2023-03-19T04:19:40;98379.78;;;2.09;70.75
55066;BME280;40964;42.114;24.220;2023-03-19T04:22:07;98393.25;;;2.13;71.07
55066;BME280;40964;42.114;24.220;2023-03-19T04:24:32;98391.94;;;2.09;70.67
55066;BME280;40964;42.114;24.220;2023-03-19T04:26:58;98378.34;;;1.97;70.03
55066;BME280;40964;42.114;24.220;2023-03-19T04:29:23;98402.28;;;1.91;71.12
55066;BME280;40964;42.114;24.220;2023-03-19T04:31:49;98405.91;;;1.80;70.65
55066;BME280;40964;42.114;24.220;2023-03-19T04:34:15;98405.81;;;1.72;71.42
55066;BME280;40964;42.114;24.220;2023-03-19T04:36:42;98402.97;;;1.65;72.22
55066;BME280;40964;42.114;24.220;2023-03-19T04:39:07;98417.97;;;1.72;72.55
55066;BME280;40964;42.114;24.220;2023-03-19T04:41:33;98416.31;;;1.70;72.19
55066;BME280;40964;42.114;24.220;2023-03-19T04:43:58;98414.25;;;1.74;72.12
55066;BME280;40964;42.114;24.220;2023-03-19T04:46:24;98410.41;;;1.78;72.32
55066;BME280;40964;42.114;24.220;2023-03-19T04:48:49;98414.06;;;2.03;71.57
55066;BME280;40964;42.114;24.220;2023-03-19T04:51:15;98408.66;;;2.32;70.88
55066;BME280;40964;42.114;24.220;2023-03-19T04:53:41;98421.34;;;2.53;69.73
55066;BME280;40964;42.114;24.220;2023-03-19T04:56:06;98409.13;;;2.45;69.54
55066;BME280;40964;42.114;24.220;2023-03-19T04:58:33;98414.59;;;2.42;69.70
55066;BME280;40964;42.114;24.220;2023-03-19T05:00:58;98404.66;;;2.38;69.40
55066;BME280;40964;42.114;24.220;2023-03-19T05:03:24;98423.25;;;2.51;69.14
55066;BME280;40964;42.114;24.220;2023-03-19T05:05:49;98418.50;;;2.64;69.14
55066;BME280;40964;42.114;24.220;2023-03-19T05:08:16;98422.00;;;2.73;69.00
55066;BME280;40964;42.114;24.220;2023-03-19T05:10:42;98427.41;;;2.79;69.01
55066;BME280;40964;42.114;24.220;2023-03-19T05:13:07;98435.56;;;2.67;69.55
55066;BME280;40964;42.114;24.220;2023-03-19T05:15:33;98426.81;;;2.68;69.62
55066;BME280;40964;42.114;24.220;2023-03-19T05:17:59;98436.69;;;2.64;69.84
55066;BME280;40964;42.114;24.220;2023-03-19T05:20:24;98438.41;;;2.55;70.39
55066;BME280;40964;42.114;24.220;2023-03-19T05:22:51;98435.56;;;2.67;70.80
55066;BME280;40964;42.114;24.220;2023-03-19T05:25:18;98437.88;;;2.70;70.48
55066;BME280;40964;42.114;24.220;2023-03-19T05:27:44;98435.53;;;2.84;69.84
55066;BME280;40964;42.114;24.220;2023-03-19T05:30:10;98439.88;;;3.02;68.81
55066;BME280;40964;42.114;24.220;2023-03-19T05:32:36;98439.13;;;3.09;66.81
55066;BME280;40964;42.114;24.220;2023-03-19T05:35:02;98428.94;;;3.16;67.42
55066;BME280;40964;42.114;24.220;2023-03-19T05:37:28;98433.41;;;3.32;67.39
55066;BME280;40964;42.114;24.220;2023-03-19T05:39:53;98445.38;;;3.51;67.07
55066;BME280;40964;42.114;24.220;2023-03-19T05:42:19;98447.72;;;3.70;65.99
55066;BME280;40964;42.114;24.220;2023-03-19T05:44:45;98442.69;;;3.77;65.34
55066;BME280;40964;42.114;24.220;2023-03-19T05:47:10;98448.44;;;3.88;65.17
55066;BME280;40964;42.114;24.220;2023-03-19T05:49:36;98446.69;;;3.97;65.20
55066;BME280;40964;42.114;24.220;2023-03-19T05:52:02;98446.06;;;4.11;64.69
55066;BME280;40964;42.114;24.220;2023-03-19T05:54:28;98438.63;;;4.24;64.30
55066;BME280;40964;42.114;24.220;2023-03-19T05:56:53;98444.16;;;4.38;65.17
55066;BME280;40964;42.114;24.220;2023-03-19T05:59:19;98440.28;;;4.42;64.86
55066;BME280;40964;42.114;24.220;2023-03-19T06:01:44;98445.97;;;4.53;64.71
55066;BME280;40964;42.114;24.220;2023-03-19T06:04:10;98445.34;;;4.60;65.58
55066;BME280;40964;42.114;24.220;2023-03-19T06:06:35;98444.50;;;4.75;65.86
55066;BME280;40964;42.114;24.220;2023-03-19T06:09:01;98444.66;;;4.82;65.59
55066;BME280;40964;42.114;24.220;2023-03-19T06:11:27;98446.47;;;4.90;65.40
55066;BME280;40964;42.114;24.220;2023-03-19T06:13:52;98448.25;;;4.97;64.54
55066;BME280;40964;42.114;24.220;2023-03-19T06:16:18;98449.53;;;5.09;63.80
55066;BME280;40964;42.114;24.220;2023-03-19T06:18:43;98448.50;;;5.35;62.17
55066;BME280;40964;42.114;24.220;2023-03-19T06:21:10;98442.91;;;5.54;61.61
55066;BME280;40964;42.114;24.220;2023-03-19T06:23:35;98445.81;;;5.67;59.91
55066;BME280;40964;42.114;24.220;2023-03-19T06:26:01;98433.66;;;5.83;60.10
55066;BME280;40964;42.114;24.220;2023-03-19T06:28:26;98445.03;;;5.98;57.56
55066;BME280;40964;42.114;24.220;2023-03-19T06:30:54;98443.38;;;6.05;58.27
55066;BME280;40964;42.114;24.220;2023-03-19T06:33:19;98445.91;;;6.21;58.93
55066;BME280;40964;42.114;24.220;2023-03-19T06:35:45;98442.88;;;6.33;57.53
55066;BME280;40964;42.114;24.220;2023-03-19T06:38:11;98441.66;;;6.43;58.88
55066;BME280;40964;42.114;24.220;2023-03-19T06:40:36;98451.88;;;6.53;58.83
55066;BME280;40964;42.114;24.220;2023-03-19T06:43:02;98454.44;;;6.61;56.84
55066;BME280;40964;42.114;24.220;2023-03-19T06:45:27;98448.50;;;6.90;58.09
55066;BME280;40964;42.114;24.220;2023-03-19T06:47:52;98446.97;;;6.96;57.27
55066;BME280;40964;42.114;24.220;2023-03-19T06:50:18;98447.28;;;7.16;57.37
55066;BME280;40964;42.114;24.220;2023-03-19T06:52:44;98451.81;;;7.22;56.87
55066;BME280;40964;42.114;24.220;2023-03-19T06:55:10;98452.25;;;7.25;56.66
55066;BME280;40964;42.114;24.220;2023-03-19T06:57:37;98441.47;;;7.28;56.42
55066;BME280;40964;42.114;24.220;2023-03-19T07:00:04;98451.81;;;7.36;57.15
55066;BME280;40964;42.114;24.220;2023-03-19T07:02:30;98453.34;;;7.46;57.88
55066;BME280;40964;42.114;24.220;2023-03-19T07:04:55;98448.31;;;7.59;56.66
55066;BME280;40964;42.114;24.220;2023-03-19T07:07:21;98439.66;;;7.73;56.88
55066;BME280;40964;42.114;24.220;2023-03-19T07:09:46;98447.66;;;7.86;55.27
55066;BME280;40964;42.114;24.220;2023-03-19T07:12:12;98429.56;;;8.06;53.53
55066;BME280;40964;42.114;24.220;2023-03-19T07:14:37;98429.59;;;8.28;53.34
55066;BME280;40964;42.114;24.220;2023-03-19T07:19:41;98429.94;;;8.61;52.41
55066;BME280;40964;42.114;24.220;2023-03-19T07:22:06;98427.63;;;8.72;52.28
55066;BME280;40964;42.114;24.220;2023-03-19T07:24:32;98421.59;;;8.72;51.17
55066;BME280;40964;42.114;24.220;2023-03-19T07:26:57;98417.31;;;8.71;50.98
55066;BME280;40964;42.114;24.220;2023-03-19T07:29:23;98421.47;;;8.87;51.08
55066;BME280;40964;42.114;24.220;2023-03-19T07:31:48;98420.13;;;8.91;52.13
55066;BME280;40964;42.114;24.220;2023-03-19T07:34:14;98418.78;;;9.01;51.19
55066;BME280;40964;42.114;24.220;2023-03-19T07:36:39;98411.44;;;9.18;49.18
55066;BME280;40964;42.114;24.220;2023-03-19T07:39:05;98415.34;;;9.29;49.44
55066;BME280;40964;42.114;24.220;2023-03-19T07:41:30;98418.41;;;9.39;49.93
55066;BME280;40964;42.114;24.220;2023-03-19T07:43:56;98417.81;;;9.37;48.83
55066;BME280;40964;42.114;24.220;2023-03-19T07:46:21;98409.22;;;9.56;49.39
55066;BME280;40964;42.114;24.220;2023-03-19T07:48:47;98412.03;;;9.55;47.99
55066;BME280;40964;42.114;24.220;2023-03-19T07:51:12;98407.94;;;9.87;48.13
55066;BME280;40964;42.114;24.220;2023-03-19T07:53:38;98350.03;;;9.60;47.41
55066;BME280;40964;42.114;24.220;2023-03-19T07:56:04;98399.53;;;10.11;47.11
55066;BME280;40964;42.114;24.220;2023-03-19T07:58:29;98391.47;;;10.19;48.69
55066;BME280;40964;42.114;24.220;2023-03-19T08:00:55;98394.53;;;10.30;46.21
55066;BME280;40964;42.114;24.220;2023-03-19T08:03:20;98385.06;;;10.35;49.08
55066;BME280;40964;42.114;24.220;2023-03-19T08:05:49;98399.41;;;10.39;46.89
55066;BME280;40964;42.114;24.220;2023-03-19T08:08:15;98396.78;;;10.46;47.38
55066;BME280;40964;42.114;24.220;2023-03-19T08:10:40;98402.47;;;10.43;46.37
55066;BME280;40964;42.114;24.220;2023-03-19T08:13:06;98400.06;;;10.61;46.04
55066;BME280;40964;42.114;24.220;2023-03-19T08:15:31;98406.72;;;10.64;45.46
55066;BME280;40964;42.114;24.220;2023-03-19T08:18:01;98409.19;;;10.78;43.48
55066;BME280;40964;42.114;24.220;2023-03-19T08:20:28;98410.59;;;10.81;41.38
55066;BME280;40964;42.114;24.220;2023-03-19T08:22:54;98414.22;;;10.80;42.42
55066;BME280;40964;42.114;24.220;2023-03-19T08:25:20;98408.94;;;10.93;43.63
55066;BME280;40964;42.114;24.220;2023-03-19T08:27:47;98408.72;;;11.34;43.14
55066;BME280;40964;42.114;24.220;2023-03-19T08:30:13;98408.28;;;11.44;42.86
55066;BME280;40964;42.114;24.220;2023-03-19T08:32:38;98404.34;;;11.66;42.62
55066;BME280;40964;42.114;24.220;2023-03-19T08:35:04;98403.72;;;11.71;41.88
55066;BME280;40964;42.114;24.220;2023-03-19T08:37:30;98404.72;;;11.77;42.39
55066;BME280;40964;42.114;24.220;2023-03-19T08:39:56;98402.34;;;11.69;41.21
55066;BME280;40964;42.114;24.220;2023-03-19T08:42:21;98400.00;;;11.99;40.91
55066;BME280;40964;42.114;24.220;2023-03-19T08:44:47;98400.38;;;12.02;39.98
55066;BME280;40964;42.114;24.220;2023-03-19T08:47:13;98403.31;;;12.26;41.54
55066;BME280;40964;42.114;24.220;2023-03-19T08:49:39;98396.06;;;12.14;40.07
55066;BME280;40964;42.114;24.220;2023-03-19T08:52:05;98402.13;;;12.53;40.33
55066;BME280;40964;42.114;24.220;2023-03-19T08:54:31;98396.47;;;12.74;38.80
55066;BME280;40964;42.114;24.220;2023-03-19T08:56:58;98391.19;;;12.99;38.76
55066;BME280;40964;42.114;24.220;2023-03-19T08:59:24;98390.75;;;13.27;40.73
55066;BME280;40964;42.114;24.220;2023-03-19T09:01:50;98390.91;;;13.32;38.23
55066;BME280;40964;42.114;24.220;2023-03-19T09:04:17;98384.94;;;13.74;38.86
55066;BME280;40964;42.114;24.220;2023-03-19T09:06:42;98381.84;;;13.95;37.90
55066;BME280;40964;42.114;24.220;2023-03-19T09:09:09;98371.53;;;14.05;36.24
55066;BME280;40964;42.114;24.220;2023-03-19T09:11:34;98367.72;;;14.31;35.31
55066;BME280;40964;42.114;24.220;2023-03-19T09:14:00;98367.66;;;14.19;36.45
55066;BME280;40964;42.114;24.220;2023-03-19T09:16:26;98368.97;;;13.99;35.04
55066;BME280;40964;42.114;24.220;2023-03-19T09:18:51;98366.03;;;14.18;35.25
55066;BME280;40964;42.114;24.220;2023-03-19T09:21:17;98362.41;;;14.01;35.86
55066;BME280;40964;42.114;24.220;2023-03-19T09:23:42;98359.94;;;13.58;36.36
55066;BME280;40964;42.114;24.220;2023-03-19T09:26:08;98352.88;;;13.70;36.21
55066;BME280;40964;42.114;24.220;2023-03-19T09:28:34;98346.25;;;13.79;37.42
55066;BME280;40964;42.114;24.220;2023-03-19T09:31:00;98338.78;;;14.18;37.63
55066;BME280;40964;42.114;24.220;2023-03-19T09:33:31;98332.69;;;14.59;36.85
55066;BME280;40964;42.114;24.220;2023-03-19T09:35:57;98328.78;;;14.97;37.39
55066;BME280;40964;42.114;24.220;2023-03-19T09:38:23;98331.88;;;14.59;35.40
55066;BME280;40964;42.114;24.220;2023-03-19T09:41:06;98325.31;;;14.50;35.02
55066;BME280;40964;42.114;24.220;2023-03-19T09:44:25;98326.38;;;13.88;35.37
55066;BME280;40964;42.114;24.220;2023-03-19T09:49:24;98308.66;;;14.19;36.00
55066;BME280;40964;42.114;24.220;2023-03-19T09:56:54;98304.16;;;14.19;36.42
55066;BME280;40964;42.114;24.220;2023-03-19T09:59:25;98293.00;;;14.47;36.63
55066;BME280;40964;42.114;24.220;2023-03-19T10:04:47;98292.56;;;14.20;38.12
55066;BME280;40964;42.114;24.220;2023-03-19T10:12:50;98290.78;;;14.80;39.62
55066;BME280;40964;42.114;24.220;2023-03-19T10:15:25;98270.63;;;14.90;39.02
55066;BME280;40964;42.114;24.220;2023-03-19T10:17:55;98286.84;;;15.05;38.23
55066;BME280;40964;42.114;24.220;2023-03-19T10:25:42;98281.06;;;15.20;39.89
55066;BME280;40964;42.114;24.220;2023-03-19T10:28:16;98267.91;;;15.37;38.87
55066;BME280;40964;42.114;24.220;2023-03-19T10:31:28;98263.97;;;15.40;38.56
55066;BME280;40964;42.114;24.220;2023-03-19T10:33:50;98253.50;;;15.90;38.81
55066;BME280;40964;42.114;24.220;2023-03-19T10:36:19;98258.84;;;16.24;38.86
55066;BME280;40964;42.114;24.220;2023-03-19T10:38:46;98241.91;;;15.79;38.57
55066;BME280;40964;42.114;24.220;2023-03-19T10:41:47;98249.63;;;15.64;38.93
55066;BME280;40964;42.114;24.220;2023-03-19T10:44:27;98232.59;;;15.48;38.29
55066;BME280;40964;42.114;24.220;2023-03-19T10:46:58;98242.00;;;15.56;38.04
55066;BME280;40964;42.114;24.220;2023-03-19T10:49:24;98234.31;;;16.00;38.39
55066;BME280;40964;42.114;24.220;2023-03-19T10:51:49;98228.19;;;16.16;38.79
55066;BME280;40964;42.114;24.220;2023-03-19T10:54:24;98197.41;;;15.98;39.03
55066;BME280;40964;42.114;24.220;2023-03-19T10:56:50;98229.41;;;16.25;39.35
55066;BME280;40964;42.114;24.220;2023-03-19T10:59:36;98218.06;;;16.30;37.94
55066;BME280;40964;42.114;24.220;2023-03-19T11:02:20;98217.69;;;16.60;38.42
55066;BME280;40964;42.114;24.220;2023-03-19T11:04:46;98216.53;;;16.34;38.00
55066;BME280;40964;42.114;24.220;2023-03-19T11:07:17;98205.97;;;16.56;36.77
55066;BME280;40964;42.114;24.220;2023-03-19T11:09:49;98210.88;;;16.64;36.56
55066;BME280;40964;42.114;24.220;2023-03-19T11:12:24;98201.88;;;16.48;38.36
55066;BME280;40964;42.114;24.220;2023-03-19T11:14:53;98199.53;;;16.52;37.33
55066;BME280;40964;42.114;24.220;2023-03-19T11:17:36;98189.53;;;16.76;36.86
55066;BME280;40964;42.114;24.220;2023-03-19T11:22:40;98183.88;;;17.16;36.14
55066;BME280;40964;42.114;24.220;2023-03-19T11:25:18;98177.13;;;16.81;36.63
55066;BME280;40964;42.114;24.220;2023-03-19T11:28:17;98180.31;;;17.27;36.17
55066;BME280;40964;42.114;24.220;2023-03-19T11:31:00;98166.03;;;17.11;35.71
55066;BME280;40964;42.114;24.220;2023-03-19T11:36:24;98169.97;;;16.65;35.65
55066;BME280;40964;42.114;24.220;2023-03-19T11:44:36;98163.47;;;16.72;36.61
55066;BME280;40964;42.114;24.220;2023-03-19T12:00:29;98133.53;;;17.58;34.75
55066;BME280;40964;42.114;24.220;2023-03-19T12:06:07;98121.56;;;17.60;33.76
55066;BME280;40964;42.114;24.220;2023-03-19T12:11:45;98128.06;;;18.02;34.80
55066;BME280;40964;42.114;24.220;2023-03-19T12:14:26;98121.19;;;18.11;35.58
55066;BME280;40964;42.114;24.220;2023-03-19T12:25:25;98117.09;;;18.40;35.66
55066;BME280;40964;42.114;24.220;2023-03-19T12:30:48;98100.56;;;17.91;34.42
55066;BME280;40964;42.114;24.220;2023-03-19T12:36:43;98101.91;;;17.89;37.16
55066;BME280;40964;42.114;24.220;2023-03-19T12:39:16;98100.13;;;18.04;33.69
55066;BME280;40964;42.114;24.220;2023-03-19T12:41:45;98104.03;;;18.34;35.70
55066;BME280;40964;42.114;24.220;2023-03-19T12:44:36;98093.34;;;18.29;33.72
55066;BME280;40964;42.114;24.220;2023-03-19T12:47:13;98100.50;;;18.23;33.98
55066;BME280;40964;42.114;24.220;2023-03-19T12:49:51;98093.16;;;18.46;33.92
55066;BME280;40964;42.114;24.220;2023-03-19T12:54:47;98083.72;;;18.85;34.39
55066;BME280;40964;42.114;24.220;2023-03-19T13:00:34;98075.78;;;18.33;33.14
55066;BME280;40964;42.114;24.220;2023-03-19T13:06:07;98076.66;;;18.49;33.61
55066;BME280;40964;42.114;24.220;2023-03-19T13:08:46;98079.66;;;18.62;32.91
55066;BME280;40964;42.114;24.220;2023-03-19T13:11:17;98059.63;;;18.55;33.10
55066;BME280;40964;42.114;24.220;2023-03-19T13:16:48;98066.97;;;18.90;32.68
55066;BME280;40964;42.114;24.220;2023-03-19T13:19:50;98049.94;;;19.16;34.95
55066;BME280;40964;42.114;24.220;2023-03-19T13:22:26;98055.28;;;19.47;32.95
55066;BME280;40964;42.114;24.220;2023-03-19T13:24:54;98052.63;;;19.42;32.05
55066;BME280;40964;42.114;24.220;2023-03-19T13:27:33;98046.22;;;19.33;32.58
55066;BME280;40964;42.114;24.220;2023-03-19T13:32:35;98028.63;;;19.06;33.15
55066;BME280;40964;42.114;24.220;2023-03-19T13:37:42;98030.53;;;18.38;32.83
55066;BME280;40964;42.114;24.220;2023-03-19T13:40:44;98028.56;;;18.70;33.34
55066;BME280;40964;42.114;24.220;2023-03-19T13:46:03;98022.66;;;18.68;32.97
55066;BME280;40964;42.114;24.220;2023-03-19T13:56:05;98022.03;;;18.41;32.80
55066;BME280;40964;42.114;24.220;2023-03-19T13:59:17;98011.63;;;18.39;32.96
55066;BME280;40964;42.114;24.220;2023-03-19T14:03:56;98010.41;;;18.67;32.53
55066;BME280;40964;42.114;24.220;2023-03-19T14:06:43;98003.50;;;18.71;31.84
55066;BME280;40964;42.114;24.220;2023-03-19T14:09:40;98005.88;;;18.68;31.95
55066;BME280;40964;42.114;24.220;2023-03-19T14:12:32;98001.25;;;18.38;31.95
55066;BME280;40964;42.114;24.220;2023-03-19T14:22:40;97998.34;;;18.50;31.55
55066;BME280;40964;42.114;24.220;2023-03-19T14:25:21;97980.97;;;18.32;32.22
55066;BME280;40964;42.114;24.220;2023-03-19T14:27:49;97995.34;;;18.31;31.55
55066;BME280;40964;42.114;24.220;2023-03-19T14:30:31;97998.06;;;18.46;32.92
55066;BME280;40964;42.114;24.220;2023-03-19T14:33:01;97999.47;;;18.69;31.92
55066;BME280;40964;42.114;24.220;2023-03-19T14:35:31;97991.16;;;18.50;31.91
55066;BME280;40964;42.114;24.220;2023-03-19T14:37:59;97989.28;;;18.46;31.75
55066;BME280;40964;42.114;24.220;2023-03-19T14:40:35;97998.69;;;18.68;32.40
55066;BME280;40964;42.114;24.220;2023-03-19T14:43:12;97987.97;;;18.53;32.16
55066;BME280;40964;42.114;24.220;2023-03-19T14:45:47;97995.16;;;18.42;32.70
55066;BME280;40964;42.114;24.220;2023-03-19T14:51:29;97993.50;;;18.31;33.61
55066;BME280;40964;42.114;24.220;2023-03-19T14:56:46;97997.03;;;18.57;32.80
55066;BME280;40964;42.114;24.220;2023-03-19T14:59:12;97989.81;;;18.48;32.58
55066;BME280;40964;42.114;24.220;2023-03-19T15:01:42;97990.59;;;18.38;32.97
55066;BME280;40964;42.114;24.220;2023-03-19T15:04:10;97988.72;;;18.38;33.08